EDDG/FMO METAR and TAF weather

Enter ICAO airport designator
Station Type Date Time Source
EDDG METAR 2021/08/04 19:50 UTC NOAA

EDDG 041950Z VRB01KT CAVOK 17/16 Q1012 NOSIG


Station Type Date Time Source
EDDG Decoded METAR 2021/08/04 19:50 UTC NOAA

Muenster / Osnabrueck, Germany (EDDG) 52-08N 007-42E 53M
Aug 04, 2021 - 03:50 PM EDT / 2021.08.04 1950 UTC
Wind: Variable at 1 MPH (1 KT):0
Visibility: greater than 7 mile(s):0
Temperature: 62 F (17 C)
Dew Point: 60 F (16 C)
Relative Humidity: 93%
Pressure (altimeter): 29.88 in. Hg (1012 hPa)
ob: EDDG 041950Z VRB01KT CAVOK 17/16 Q1012 NOSIG
cycle: 20

Station Type Date Time Source
EDDG TAF 2021/08/04 18:27 UTC NOAA

TAF EDDG 041700Z 0418/0518 14006KT 9999 SCT040 PROB30
TEMPO 0418/0420 SHRA BKN030CB
BECMG 0418/0420 VRB02KT
BECMG 0500/0502 2000 BCFG
TEMPO 0502/0506 0500 FG
BECMG 0506/0508 9999
BECMG 0509/0512 14005KT PROB30
TEMPO 0514/0518 SHRA BKN020CB

Example: see airport list